createdAt,value
2023-07-19T00:00:17.424Z,12.7
2023-07-19T00:01:19.731Z,12.7
2023-07-19T00:02:21.480Z,12.8
2023-07-19T00:03:23.451Z,12.8
2023-07-19T00:04:25.502Z,12.9
2023-07-19T00:05:27.410Z,12.9
2023-07-19T00:06:29.416Z,12.8
2023-07-19T00:07:31.430Z,12.8
2023-07-19T00:08:33.444Z,12.7
2023-07-19T00:09:35.433Z,12.7
2023-07-19T00:10:37.417Z,12.7
2023-07-19T00:11:39.417Z,12.7
2023-07-19T00:12:50.642Z,12.7
2023-07-19T00:13:57.687Z,12.7
2023-07-19T00:14:59.656Z,12.7
2023-07-19T00:16:01.723Z,12.7
2023-07-19T00:17:03.666Z,12.7
2023-07-19T00:18:05.747Z,12.8
2023-07-19T00:19:18.532Z,12.8
2023-07-19T00:20:21.964Z,12.8
2023-07-19T00:21:24.018Z,12.8
2023-07-19T00:22:25.994Z,12.8
2023-07-19T00:23:28.004Z,12.8
2023-07-19T00:24:29.965Z,12.8
2023-07-19T00:25:31.958Z,12.8
2023-07-19T00:26:33.956Z,12.8
2023-07-19T00:27:35.991Z,12.8
2023-07-19T00:28:37.952Z,12.7
2023-07-19T00:29:39.953Z,12.7
2023-07-19T00:30:41.956Z,12.6
2023-07-19T00:31:43.982Z,12.6
2023-07-19T00:32:46.008Z,12.6
2023-07-19T00:33:47.993Z,12.5
2023-07-19T00:34:49.966Z,12.5
2023-07-19T00:35:51.944Z,12.5
2023-07-19T00:36:53.978Z,12.5
2023-07-19T00:37:55.945Z,12.5
2023-07-19T00:38:57.944Z,12.5
2023-07-19T00:39:59.950Z,12.5
2023-07-19T00:41:01.973Z,12.5
2023-07-19T00:42:03.973Z,12.5
2023-07-19T00:43:05.951Z,12.5
2023-07-19T00:44:07.948Z,12.5
2023-07-19T00:45:09.940Z,12.5
2023-07-19T00:46:12.050Z,12.6
2023-07-19T00:47:13.932Z,12.6
2023-07-19T00:48:15.935Z,12.6
2023-07-19T00:49:17.969Z,12.7
2023-07-19T00:50:19.964Z,12.7
2023-07-19T00:51:22.074Z,12.7
2023-07-19T00:52:23.925Z,12.6
2023-07-19T00:53:25.945Z,12.6
2023-07-19T00:54:27.927Z,12.6
2023-07-19T00:55:29.954Z,12.5
2023-07-19T00:56:31.924Z,12.5
2023-07-19T00:57:33.920Z,12.5
2023-07-19T00:58:35.918Z,12.5
2023-07-19T00:59:37.949Z,12.5
2023-07-19T01:00:39.951Z,12.5
2023-07-19T01:01:41.929Z,12.5
2023-07-19T01:02:43.934Z,12.3
2023-07-19T01:03:45.911Z,12.3
2023-07-19T01:04:48.058Z,12.2
2023-07-19T01:05:49.909Z,12.2
2023-07-19T01:06:51.908Z,12.2
2023-07-19T01:07:53.908Z,12.2
2023-07-19T01:08:55.948Z,12.2
2023-07-19T01:09:57.938Z,12.3
2023-07-19T01:10:59.903Z,12.3
2023-07-19T01:12:01.910Z,12.3
2023-07-19T01:13:03.908Z,12.4
2023-07-19T01:14:05.931Z,12.4
2023-07-19T01:15:07.901Z,12.4
2023-07-19T01:16:09.935Z,12.5
2023-07-19T01:17:11.898Z,12.4
2023-07-19T01:18:13.911Z,12.4
2023-07-19T01:19:15.927Z,12.4
2023-07-19T01:20:17.919Z,12.3
2023-07-19T01:21:23.748Z,12.3
2023-07-19T01:22:27.481Z,12.3
2023-07-19T01:23:29.433Z,12.3
2023-07-19T01:24:31.404Z,12.3
2023-07-19T01:25:33.409Z,12.3
2023-07-19T01:26:35.413Z,12.3
2023-07-19T01:27:37.438Z,12.3
2023-07-19T01:28:39.424Z,12.3
2023-07-19T01:29:41.391Z,12.2
2023-07-19T01:30:43.394Z,12.2
2023-07-19T01:31:45.401Z,12.2
2023-07-19T01:32:47.440Z,12.2
2023-07-19T01:33:49.389Z,12.2
2023-07-19T01:34:51.388Z,12.2
2023-07-19T01:35:53.418Z,12.3
2023-07-19T01:36:55.417Z,12.3
2023-07-19T01:37:57.422Z,12.3
2023-07-19T01:38:59.383Z,12.3
2023-07-19T01:40:01.381Z,12.3
2023-07-19T01:41:03.386Z,12.4
2023-07-19T01:42:05.409Z,12.3
2023-07-19T01:43:07.377Z,12.3
2023-07-19T01:44:09.375Z,12.2
2023-07-19T01:45:11.375Z,12.2
2023-07-19T01:46:13.441Z,12.2
2023-07-19T01:47:15.401Z,12.2
2023-07-19T01:48:17.375Z,12.2
2023-07-19T01:49:19.373Z,12.2
2023-07-19T01:50:21.379Z,12.2
2023-07-19T01:51:23.800Z,12.2
2023-07-19T01:52:25.644Z,12.3
2023-07-19T01:53:27.363Z,12.3
2023-07-19T01:54:29.363Z,12.3
2023-07-19T01:55:31.393Z,12.3
2023-07-19T01:56:33.403Z,12.3
2023-07-19T01:57:35.362Z,12.3
2023-07-19T01:58:37.379Z,12.3
2023-07-19T01:59:39.355Z,12.3
2023-07-19T02:00:41.386Z,12.3
2023-07-19T02:01:43.428Z,12.3
2023-07-19T02:02:45.427Z,12.3
2023-07-19T02:03:47.365Z,12.3
2023-07-19T02:04:49.522Z,12.3
2023-07-19T02:05:51.392Z,12.3
2023-07-19T02:06:53.371Z,12.2
2023-07-19T02:07:55.345Z,12.2
2023-07-19T02:08:57.347Z,12.1
2023-07-19T02:09:59.373Z,12
2023-07-19T02:11:01.346Z,12
2023-07-19T02:12:03.346Z,11.9
2023-07-19T02:13:05.339Z,11.9
2023-07-19T02:14:07.368Z,11.9
2023-07-19T02:15:09.363Z,11.9
2023-07-19T02:16:11.376Z,11.9
2023-07-19T02:17:13.329Z,11.9
2023-07-19T02:18:15.334Z,11.8
2023-07-19T02:19:17.362Z,11.8
2023-07-19T02:20:19.327Z,11.7
2023-07-19T02:21:21.683Z,11.9
2023-07-19T02:22:23.355Z,11.9
2023-07-19T02:23:25.326Z,11.9
2023-07-19T02:24:27.356Z,11.9
2023-07-19T02:25:29.336Z,11.9
2023-07-19T02:26:31.321Z,11.9
2023-07-19T02:27:33.320Z,11.9
2023-07-19T02:28:35.348Z,11.9
2023-07-19T02:29:37.316Z,11.9
2023-07-19T02:30:39.316Z,11.9
2023-07-19T02:31:41.331Z,11.9
2023-07-19T02:32:43.334Z,11.9
2023-07-19T02:33:45.343Z,11.9
2023-07-19T02:34:47.316Z,11.9
2023-07-19T02:35:49.307Z,11.9
2023-07-19T02:36:51.317Z,11.8
2023-07-19T02:37:53.361Z,11.7
2023-07-19T02:38:55.338Z,11.7
2023-07-19T02:39:57.305Z,11.6
2023-07-19T02:40:59.302Z,11.6
2023-07-19T02:42:01.302Z,11.6
2023-07-19T02:43:03.340Z,11.5
2023-07-19T02:44:05.302Z,11.6
2023-07-19T02:45:07.296Z,11.6
2023-07-19T02:46:09.319Z,11.6
2023-07-19T02:47:11.296Z,11.5
2023-07-19T02:48:13.355Z,11.5
2023-07-19T02:49:15.297Z,11.5
2023-07-19T02:50:17.299Z,11.4
2023-07-19T02:51:19.535Z,11.4
2023-07-19T02:52:21.314Z,11.4
2023-07-19T02:53:23.307Z,11.4
2023-07-19T02:54:25.282Z,11.4
2023-07-19T02:55:27.286Z,11.4
2023-07-19T02:56:29.283Z,11.5
2023-07-19T02:57:31.309Z,11.5
2023-07-19T02:58:33.277Z,11.5
2023-07-19T02:59:35.276Z,11.5
2023-07-19T03:00:37.285Z,11.5
2023-07-19T03:01:39.304Z,11.5
2023-07-19T03:02:41.341Z,11.6
2023-07-19T03:03:43.414Z,11.5
2023-07-19T03:04:45.269Z,11.5
2023-07-19T03:05:47.267Z,11.5
2023-07-19T03:06:49.300Z,11.5
2023-07-19T03:07:51.267Z,11.5
2023-07-19T03:08:53.288Z,11.5
2023-07-19T03:09:55.263Z,11.5
2023-07-19T03:10:57.303Z,11.5
2023-07-19T03:11:59.263Z,11.6
2023-07-19T03:13:01.265Z,11.7
2023-07-19T03:14:03.262Z,11.7
2023-07-19T03:15:05.261Z,11.7
2023-07-19T03:16:07.318Z,11.7
2023-07-19T03:17:09.256Z,11.7
2023-07-19T03:18:11.256Z,11.6
2023-07-19T03:19:14.240Z,11.6
2023-07-19T03:20:15.291Z,11.6
2023-07-19T03:21:17.313Z,11.6
2023-07-19T03:22:19.253Z,11.7
2023-07-19T03:23:21.249Z,11.7
2023-07-19T03:24:23.273Z,11.7
2023-07-19T03:25:25.281Z,11.7
2023-07-19T03:26:27.243Z,11.7
2023-07-19T03:27:29.247Z,11.6
2023-07-19T03:28:31.266Z,11.6
2023-07-19T03:29:33.274Z,11.6
2023-07-19T03:30:35.259Z,11.6
2023-07-19T03:31:37.242Z,11.6
2023-07-19T03:32:39.280Z,11.5
2023-07-19T03:33:41.247Z,11.5
2023-07-19T03:34:43.277Z,11.5
2023-07-19T03:35:45.252Z,11.4
2023-07-19T03:36:47.243Z,11.4
2023-07-19T03:37:49.231Z,11.5
2023-07-19T03:38:51.259Z,11.5
2023-07-19T03:39:53.288Z,11.5
2023-07-19T03:40:55.226Z,11.5
2023-07-19T03:41:57.226Z,11.5
2023-07-19T03:42:59.228Z,11.5
2023-07-19T03:44:01.250Z,11.5
2023-07-19T03:45:03.224Z,11.5
2023-07-19T03:46:05.252Z,11.5
2023-07-19T03:47:07.216Z,11.6
2023-07-19T03:48:09.263Z,11.6
2023-07-19T03:49:11.264Z,11.7
2023-07-19T03:50:13.215Z,11.7
2023-07-19T03:51:15.217Z,11.7
2023-07-19T03:52:17.225Z,11.7
2023-07-19T03:53:19.242Z,11.7
2023-07-19T03:54:21.216Z,11.7
2023-07-19T03:55:23.270Z,11.7
2023-07-19T03:56:25.212Z,11.7
2023-07-19T03:57:27.258Z,11.7
2023-07-19T03:58:29.234Z,11.7
2023-07-19T03:59:31.212Z,11.7
2023-07-19T04:00:33.205Z,11.6
2023-07-19T04:01:35.283Z,11.5
2023-07-19T04:02:37.262Z,11.5
2023-07-19T04:03:39.219Z,11.5
2023-07-19T04:04:41.198Z,11.5
2023-07-19T04:05:43.202Z,11.5
2023-07-19T04:06:45.197Z,11.5
2023-07-19T04:07:47.226Z,11.5
2023-07-19T04:08:49.194Z,11.5
2023-07-19T04:09:51.197Z,11.5
2023-07-19T04:10:53.216Z,11.5
2023-07-19T04:11:55.247Z,11.5
2023-07-19T04:12:57.219Z,11.5
2023-07-19T04:13:59.186Z,11.5
2023-07-19T04:15:01.192Z,11.6
2023-07-19T04:16:03.198Z,11.7
2023-07-19T04:17:05.227Z,11.7
2023-07-19T04:18:07.251Z,11.7
2023-07-19T04:19:09.715Z,11.7
2023-07-19T04:20:11.181Z,11.7
2023-07-19T04:21:13.210Z,11.8
2023-07-19T04:22:15.212Z,11.9
2023-07-19T04:23:17.178Z,11.9
2023-07-19T04:24:19.179Z,11.9
2023-07-19T04:25:21.180Z,11.9
2023-07-19T04:26:23.289Z,11.9
2023-07-19T04:27:25.176Z,11.9
2023-07-19T04:28:27.178Z,11.9
2023-07-19T04:29:29.181Z,11.9
2023-07-19T04:30:31.205Z,12
2023-07-19T04:31:33.408Z,11.9
2023-07-19T04:32:35.222Z,11.9
2023-07-19T04:33:37.231Z,11.9
2023-07-19T04:34:39.165Z,11.9
2023-07-19T04:35:41.193Z,11.9
2023-07-19T04:36:43.162Z,11.9
2023-07-19T04:37:45.162Z,11.8
2023-07-19T04:38:47.158Z,11.8
2023-07-19T04:39:49.187Z,11.8
2023-07-19T04:40:51.186Z,11.8
2023-07-19T04:41:53.186Z,11.9
2023-07-19T04:42:55.156Z,11.9
2023-07-19T04:43:57.156Z,11.9
2023-07-19T04:44:59.181Z,11.9
2023-07-19T04:46:01.194Z,12
2023-07-19T04:47:03.158Z,12
2023-07-19T04:48:05.276Z,12.1
2023-07-19T04:49:07.189Z,12.1
2023-07-19T04:50:09.176Z,12.1
2023-07-19T04:51:11.144Z,12.1
2023-07-19T04:52:13.143Z,12.1
2023-07-19T04:53:15.143Z,12.1
2023-07-19T04:54:17.168Z,12.2
2023-07-19T04:55:19.153Z,12.2
2023-07-19T04:56:21.138Z,12.3
2023-07-19T04:57:23.250Z,12.3
2023-07-19T04:58:25.164Z,12.3
2023-07-19T04:59:27.163Z,12.4
2023-07-19T05:00:29.138Z,12.5
2023-07-19T05:01:31.170Z,12.5
2023-07-19T05:02:33.260Z,12.5
2023-07-19T05:03:35.159Z,12.5
2023-07-19T05:04:37.232Z,12.5
2023-07-19T05:05:39.176Z,12.5
2023-07-19T05:06:41.135Z,12.5
2023-07-19T05:07:43.159Z,12.5
2023-07-19T05:08:45.131Z,12.6
2023-07-19T05:09:47.121Z,12.6
2023-07-19T05:10:49.123Z,12.6
2023-07-19T05:11:51.118Z,12.6
2023-07-19T05:12:53.173Z,12.5
2023-07-19T05:13:55.116Z,12.5
2023-07-19T05:14:57.120Z,12.5
2023-07-19T05:15:59.128Z,12.6
2023-07-19T05:17:01.274Z,12.6
2023-07-19T05:18:03.164Z,12.7
2023-07-19T05:19:05.167Z,12.7
2023-07-19T05:20:07.107Z,12.7
2023-07-19T05:21:09.107Z,12.7
2023-07-19T05:22:11.137Z,12.7
2023-07-19T05:23:13.267Z,12.8
2023-07-19T05:24:15.102Z,12.8
2023-07-19T05:25:17.101Z,12.9
2023-07-19T05:26:19.138Z,12.9
2023-07-19T05:27:21.097Z,12.9
2023-07-19T05:28:23.142Z,12.9
2023-07-19T05:29:25.095Z,13
2023-07-19T05:30:27.097Z,13
2023-07-19T05:31:29.139Z,13
2023-07-19T05:32:31.101Z,13
2023-07-19T05:33:33.092Z,13
2023-07-19T05:34:35.093Z,13.1
2023-07-19T05:35:37.120Z,13.1
2023-07-19T05:36:39.113Z,13.1
2023-07-19T05:37:41.117Z,13.2
2023-07-19T05:38:43.084Z,13.2
2023-07-19T05:39:45.101Z,13.3
2023-07-19T05:40:47.113Z,13.3
2023-07-19T05:41:50.660Z,13.3
2023-07-19T05:42:52.136Z,13.3
2023-07-19T05:44:05.732Z,13.5
2023-07-19T05:45:13.029Z,13.5
2023-07-19T05:46:15.032Z,13.5
2023-07-19T05:47:16.994Z,13.5
2023-07-19T05:48:19.012Z,13.6
2023-07-19T05:49:21.019Z,13.6
2023-07-19T05:50:23.017Z,13.6
2023-07-19T05:51:24.990Z,13.6
2023-07-19T05:52:26.981Z,13.6
2023-07-19T05:53:28.981Z,13.6
2023-07-19T05:54:31.012Z,13.7
2023-07-19T05:55:32.979Z,13.7
2023-07-19T05:56:34.984Z,13.7
2023-07-19T05:57:36.982Z,13.8
2023-07-19T05:58:39.009Z,13.8
2023-07-19T05:59:41.024Z,13.8
2023-07-19T06:00:42.988Z,13.8
2023-07-19T06:01:45.058Z,13.8
2023-07-19T06:02:53.981Z,13.9
2023-07-19T06:03:56.511Z,13.9
2023-07-19T06:04:58.505Z,13.9
2023-07-19T06:06:00.427Z,14
2023-07-19T06:07:02.424Z,14
2023-07-19T06:08:14.256Z,14.1
2023-07-19T06:09:25.465Z,14.2
2023-07-19T06:10:27.491Z,14.3
2023-07-19T06:11:29.465Z,14.3
2023-07-19T06:12:31.463Z,14.4
2023-07-19T06:13:33.516Z,14.5
2023-07-19T06:14:35.461Z,14.6
2023-07-19T06:15:37.551Z,14.6
2023-07-19T06:16:39.463Z,14.7
2023-07-19T06:17:41.577Z,14.8
2023-07-19T06:18:43.456Z,14.8
2023-07-19T06:19:45.458Z,14.8
2023-07-19T06:20:47.480Z,14.9
2023-07-19T06:21:49.450Z,14.9
2023-07-19T06:22:51.510Z,15
2023-07-19T06:23:53.471Z,15
2023-07-19T06:24:55.449Z,15.1
2023-07-19T06:25:57.447Z,15.2
2023-07-19T06:26:59.472Z,15.3
2023-07-19T06:28:01.470Z,15.4
2023-07-19T06:29:03.441Z,15.4
2023-07-19T06:30:05.436Z,15.5
2023-07-19T06:31:07.600Z,15.6
2023-07-19T06:32:09.479Z,15.6
2023-07-19T06:33:11.496Z,15.7
2023-07-19T06:34:13.441Z,15.7
2023-07-19T06:35:15.432Z,15.8
2023-07-19T06:36:17.462Z,15.8
2023-07-19T06:37:19.459Z,15.8
2023-07-19T06:38:21.438Z,15.9
2023-07-19T06:39:23.425Z,16
2023-07-19T06:40:25.422Z,16
2023-07-19T06:41:27.454Z,16
2023-07-19T06:42:29.423Z,16.1
2023-07-19T06:43:31.421Z,16.1
2023-07-19T06:44:33.486Z,16.1
2023-07-19T06:45:35.449Z,16.2
2023-07-19T06:46:37.529Z,16.2
2023-07-19T06:47:39.424Z,16.2
2023-07-19T06:48:41.413Z,16.3
2023-07-19T06:49:43.420Z,16.3
2023-07-19T06:50:45.444Z,16.4
2023-07-19T06:51:47.417Z,16.4
2023-07-19T06:52:49.410Z,16.4
2023-07-19T06:54:01.137Z,16.4
2023-07-19T06:55:16.152Z,16.4
2023-07-19T06:56:18.123Z,16.4
2023-07-19T06:57:20.124Z,16.5
2023-07-19T06:58:22.118Z,16.5
2023-07-19T06:59:24.119Z,16.5
2023-07-19T07:00:26.180Z,16.5
2023-07-19T07:01:28.174Z,16.5
2023-07-19T07:02:30.177Z,16.5
2023-07-19T07:03:32.163Z,16.4
2023-07-19T07:04:34.142Z,16.4
2023-07-19T07:05:36.138Z,16.4
2023-07-19T07:06:38.130Z,16.4
2023-07-19T07:07:40.106Z,16.4
2023-07-19T07:08:42.108Z,16.4
2023-07-19T07:09:44.136Z,16.4
2023-07-19T07:10:46.100Z,16.4
2023-07-19T07:11:48.126Z,16.4
2023-07-19T07:12:50.100Z,16.4
2023-07-19T07:13:52.129Z,16.3
2023-07-19T07:14:54.128Z,16.3
2023-07-19T07:15:56.105Z,16.3
2023-07-19T07:16:58.126Z,16.3
2023-07-19T07:18:00.215Z,16.3
2023-07-19T07:19:02.128Z,16.3
2023-07-19T07:20:04.091Z,16.3
2023-07-19T07:21:06.090Z,16.3
2023-07-19T07:22:08.096Z,16.3
2023-07-19T07:23:10.192Z,16.3
2023-07-19T07:24:12.122Z,16.3
2023-07-19T07:25:14.083Z,16.3
2023-07-19T07:26:16.087Z,16.3
2023-07-19T07:27:18.094Z,16.4
2023-07-19T07:28:20.120Z,16.4
2023-07-19T07:29:22.082Z,16.4
2023-07-19T07:30:24.116Z,16.4
2023-07-19T07:31:26.201Z,16.5
2023-07-19T07:32:28.121Z,16.5
2023-07-19T07:33:30.150Z,16.6
2023-07-19T07:34:32.071Z,16.7
2023-07-19T07:35:34.078Z,16.8
2023-07-19T07:36:36.070Z,16.9
2023-07-19T07:37:38.102Z,16.9
2023-07-19T07:38:40.069Z,17
2023-07-19T07:39:42.067Z,17
2023-07-19T07:40:44.068Z,17
2023-07-19T07:41:46.094Z,17
2023-07-19T07:42:48.093Z,17
2023-07-19T07:43:50.063Z,17
2023-07-19T07:44:52.062Z,17
2023-07-19T07:45:54.067Z,17
2023-07-19T07:46:56.112Z,17.1
2023-07-19T07:47:58.091Z,17.2
2023-07-19T07:49:00.188Z,17.2
2023-07-19T07:50:02.051Z,17.2
2023-07-19T07:51:04.107Z,17.2
2023-07-19T07:52:06.088Z,17.2
2023-07-19T07:53:12.816Z,17.2
2023-07-19T07:54:13.855Z,17.2
2023-07-19T07:55:15.866Z,17.2
2023-07-19T07:56:17.934Z,17.2
2023-07-19T07:57:19.860Z,17.2
2023-07-19T07:58:21.867Z,17.2
2023-07-19T07:59:23.855Z,17
2023-07-19T08:00:25.876Z,17
2023-07-19T08:01:27.919Z,17
2023-07-19T08:02:30.028Z,16.9
2023-07-19T08:03:31.889Z,16.9
2023-07-19T08:04:33.896Z,16.8
2023-07-19T08:05:35.878Z,16.7
2023-07-19T08:06:37.839Z,16.6
2023-07-19T08:07:39.849Z,16.6
2023-07-19T08:08:41.844Z,16.6
2023-07-19T08:09:43.867Z,16.5
2023-07-19T08:10:45.865Z,16.5
2023-07-19T08:11:47.835Z,16.4
2023-07-19T08:12:49.831Z,16.4
2023-07-19T08:13:51.831Z,16.4
2023-07-19T08:14:53.860Z,16.4
2023-07-19T08:15:55.829Z,16.4
2023-07-19T08:16:59.240Z,16.3
2023-07-19T08:19:05.297Z,16.2
2023-07-19T08:20:07.338Z,16.2
2023-07-19T08:21:11.857Z,16.1
2023-07-19T08:22:25.921Z,16.1
2023-07-19T08:23:27.925Z,16
2023-07-19T08:24:29.952Z,16
2023-07-19T08:25:31.925Z,16
2023-07-19T08:26:33.919Z,16
2023-07-19T08:27:35.917Z,16
2023-07-19T08:28:37.961Z,16
2023-07-19T08:29:39.945Z,16
2023-07-19T08:30:41.940Z,16
2023-07-19T08:31:43.913Z,16
2023-07-19T08:32:45.959Z,16
2023-07-19T08:33:47.941Z,16
2023-07-19T08:34:49.908Z,16
2023-07-19T08:35:51.985Z,16
2023-07-19T08:36:53.904Z,16
2023-07-19T08:37:55.934Z,16
2023-07-19T08:38:57.901Z,16.1
2023-07-19T08:39:59.906Z,16.1
2023-07-19T08:41:01.920Z,16.1
2023-07-19T08:42:03.899Z,16.1
2023-07-19T08:43:07.161Z,16.1
2023-07-19T08:44:07.904Z,16.1
2023-07-19T08:45:09.898Z,16.1
2023-07-19T08:46:11.930Z,16.2
2023-07-19T08:47:13.932Z,16.2
2023-07-19T08:48:15.898Z,16.2
2023-07-19T08:49:17.888Z,16.2
2023-07-19T08:50:19.903Z,16.2
2023-07-19T08:51:22.098Z,16.2
2023-07-19T08:52:23.925Z,16.2
2023-07-19T08:53:25.884Z,16.2
2023-07-19T08:54:27.884Z,16.2
2023-07-19T08:55:29.888Z,16.1
2023-07-19T08:56:31.915Z,16.1
2023-07-19T08:57:33.881Z,16.1
2023-07-19T08:58:35.880Z,16
2023-07-19T08:59:37.878Z,16
2023-07-19T09:00:39.876Z,16
2023-07-19T09:01:41.988Z,16
2023-07-19T09:02:43.898Z,16
2023-07-19T09:03:45.881Z,16
2023-07-19T09:04:47.874Z,16
2023-07-19T09:05:49.900Z,16
2023-07-19T09:06:51.958Z,16
2023-07-19T09:07:53.867Z,16
2023-07-19T09:08:55.867Z,16
2023-07-19T09:09:58.144Z,16
2023-07-19T09:10:59.897Z,15.9
2023-07-19T09:12:01.869Z,15.9
2023-07-19T09:13:03.860Z,15.8
2023-07-19T09:14:05.859Z,15.8
2023-07-19T09:15:07.898Z,15.8
2023-07-19T09:16:09.887Z,15.8
2023-07-19T09:17:11.858Z,15.8
2023-07-19T09:18:13.895Z,15.8
2023-07-19T09:19:15.873Z,15.8
2023-07-19T09:20:17.881Z,15.8
2023-07-19T09:21:21.103Z,15.8
2023-07-19T09:22:21.925Z,15.8
2023-07-19T09:23:23.850Z,15.8
2023-07-19T09:24:25.880Z,15.8
2023-07-19T09:25:27.885Z,15.8
2023-07-19T09:26:29.852Z,15.8
2023-07-19T09:27:31.853Z,15.8
2023-07-19T09:28:33.843Z,15.8
2023-07-19T09:29:35.881Z,15.8
2023-07-19T09:30:37.849Z,15.8
2023-07-19T09:31:39.846Z,15.8
2023-07-19T09:32:41.880Z,15.8
2023-07-19T09:33:43.875Z,15.9
2023-07-19T09:34:45.870Z,16
2023-07-19T09:35:47.836Z,16
2023-07-19T09:36:49.841Z,16.1
2023-07-19T09:37:51.891Z,16.1
2023-07-19T09:38:53.923Z,16.2
2023-07-19T09:39:55.831Z,16.2
2023-07-19T09:40:57.827Z,16.2
2023-07-19T09:41:59.832Z,16.2
2023-07-19T09:43:01.859Z,16.3
2023-07-19T09:44:03.875Z,16.3
2023-07-19T09:45:05.825Z,16.3
2023-07-19T09:46:07.848Z,16.3
2023-07-19T09:47:18.767Z,16.4
2023-07-19T09:48:30.663Z,16.4
2023-07-19T09:49:32.600Z,16.4
2023-07-19T09:50:34.603Z,16.4
2023-07-19T09:51:36.601Z,16.5
2023-07-19T09:52:38.634Z,16.5
2023-07-19T09:53:40.633Z,16.6
2023-07-19T09:54:42.592Z,16.6
2023-07-19T09:55:44.592Z,16.7
2023-07-19T09:56:46.622Z,16.7
2023-07-19T09:57:48.628Z,16.7
2023-07-19T09:58:50.592Z,16.7
2023-07-19T09:59:52.710Z,16.8
2023-07-19T10:00:54.586Z,16.8
2023-07-19T10:01:56.632Z,16.8
2023-07-19T10:02:58.632Z,16.8
2023-07-19T10:04:00.585Z,16.8
2023-07-19T10:05:02.628Z,16.8
2023-07-19T10:06:04.609Z,16.8
2023-07-19T10:07:06.619Z,16.8
2023-07-19T10:08:08.578Z,16.8
2023-07-19T10:09:10.619Z,16.9
2023-07-19T10:10:12.575Z,16.9
2023-07-19T10:11:14.602Z,16.9
2023-07-19T10:12:16.573Z,17
2023-07-19T10:13:18.571Z,17
2023-07-19T10:14:33.437Z,17
2023-07-19T10:15:35.417Z,17
2023-07-19T10:16:37.425Z,17.1
2023-07-19T10:17:39.414Z,17.2
2023-07-19T10:18:41.384Z,17.2
2023-07-19T10:19:43.384Z,17.2
2023-07-19T10:20:45.409Z,17.2
2023-07-19T10:21:47.379Z,17.2
2023-07-19T10:22:49.453Z,17.3
2023-07-19T10:23:51.379Z,17.4
2023-07-19T10:24:53.435Z,17.5
2023-07-19T10:25:55.408Z,17.5
2023-07-19T10:26:57.374Z,17.5
2023-07-19T10:27:59.382Z,17.6
2023-07-19T10:29:01.373Z,17.6
2023-07-19T10:30:03.407Z,17.6
2023-07-19T10:31:22.321Z,17.7
2023-07-19T10:32:29.778Z,17.8
2023-07-19T10:33:31.802Z,17.8
2023-07-19T10:34:44.114Z,17.8
2023-07-19T10:35:46.377Z,17.9
2023-07-19T10:36:48.379Z,17.9
2023-07-19T10:37:51.263Z,18
2023-07-19T10:38:53.158Z,18
2023-07-19T10:39:55.181Z,18
2023-07-19T10:40:57.181Z,18.1
2023-07-19T10:41:59.154Z,18.1
2023-07-19T10:43:01.183Z,18.2
2023-07-19T10:44:06.191Z,18.3
2023-07-19T10:45:07.360Z,18.4
2023-07-19T10:46:09.352Z,18.5
2023-07-19T10:47:11.324Z,18.5
2023-07-19T10:48:13.320Z,18.6
2023-07-19T10:49:15.366Z,18.7
2023-07-19T10:50:17.337Z,18.7
2023-07-19T10:51:19.846Z,18.8
2023-07-19T10:52:21.316Z,18.9
2023-07-19T10:53:23.347Z,18.9
2023-07-19T10:54:25.345Z,18.9
2023-07-19T10:55:47.308Z,19
2023-07-19T10:56:54.872Z,19
2023-07-19T10:57:56.839Z,19
2023-07-19T10:58:58.837Z,19.1
2023-07-19T11:00:00.804Z,19.1
2023-07-19T11:01:02.820Z,19.2
2023-07-19T11:02:04.828Z,19.3
2023-07-19T11:03:06.874Z,19.3
2023-07-19T11:04:08.908Z,19.4
2023-07-19T11:05:10.797Z,19.4
2023-07-19T11:06:12.848Z,19.5
2023-07-19T11:07:14.824Z,19.5
2023-07-19T11:08:16.826Z,19.5
2023-07-19T11:09:18.793Z,19.5
2023-07-19T11:10:20.803Z,19.7
2023-07-19T11:11:22.905Z,19.7
2023-07-19T11:12:24.862Z,19.7
2023-07-19T11:13:26.797Z,19.8
2023-07-19T11:14:28.787Z,19.9
2023-07-19T11:15:30.789Z,19.9
2023-07-19T11:16:32.860Z,20
2023-07-19T11:17:34.841Z,20.1
2023-07-19T11:18:36.786Z,20.3
2023-07-19T11:19:38.780Z,20.3
2023-07-19T11:20:40.779Z,20.3
2023-07-19T11:21:42.817Z,20.2
2023-07-19T11:22:44.834Z,20.1
2023-07-19T11:23:46.774Z,20.1
2023-07-19T11:24:48.844Z,20
2023-07-19T11:25:50.806Z,20
2023-07-19T11:26:52.805Z,20
2023-07-19T11:27:55.328Z,20
2023-07-19T11:28:56.782Z,20
2023-07-19T11:29:58.778Z,20
2023-07-19T11:31:00.824Z,20
2023-07-19T11:32:02.767Z,20
2023-07-19T11:33:04.780Z,20
2023-07-19T11:34:06.762Z,20
2023-07-19T11:35:08.801Z,19.9
2023-07-19T11:36:10.794Z,19.9
2023-07-19T11:37:12.759Z,19.8
2023-07-19T11:38:14.772Z,19.9
2023-07-19T11:39:16.758Z,20
2023-07-19T11:40:18.789Z,20
2023-07-19T11:41:21.177Z,20.1
2023-07-19T11:42:22.755Z,20.1
2023-07-19T11:43:24.782Z,20.2
2023-07-19T11:44:26.790Z,20.2
2023-07-19T11:45:28.784Z,20.2
2023-07-19T11:46:30.791Z,20.2
2023-07-19T11:47:32.807Z,20.3
2023-07-19T11:48:34.755Z,20.3
2023-07-19T11:49:36.800Z,20.5
2023-07-19T11:50:38.747Z,20.5
2023-07-19T11:51:40.773Z,20.6
2023-07-19T11:52:42.744Z,20.7
2023-07-19T11:53:44.774Z,20.9
2023-07-19T11:54:46.771Z,20.9
2023-07-19T11:55:48.772Z,21
2023-07-19T11:56:50.737Z,21.1
2023-07-19T11:57:52.748Z,21.1
2023-07-19T11:58:54.817Z,21.2
2023-07-19T11:59:56.734Z,21.3
2023-07-19T12:00:58.759Z,21.5
2023-07-19T12:02:00.744Z,21.7
2023-07-19T12:03:02.796Z,21.9
2023-07-19T12:04:04.804Z,22
2023-07-19T12:05:06.729Z,22
2023-07-19T12:06:08.728Z,22.2
2023-07-19T12:07:10.727Z,22.2
2023-07-19T12:08:12.756Z,22.3
2023-07-19T12:09:14.723Z,22.4
2023-07-19T12:10:16.725Z,22.5
2023-07-19T12:11:18.721Z,22.5
2023-07-19T12:12:20.750Z,22.6
2023-07-19T12:13:22.749Z,22.6
2023-07-19T12:14:25.581Z,22.5
2023-07-19T12:15:29.841Z,22.5
2023-07-19T12:16:31.754Z,22.3
2023-07-19T12:17:33.808Z,22.2
2023-07-19T12:18:35.740Z,22.1
2023-07-19T12:19:37.738Z,22
2023-07-19T12:20:39.736Z,22
2023-07-19T12:21:42.102Z,22
2023-07-19T12:22:44.141Z,21.9
2023-07-19T12:24:59.908Z,21.8
2023-07-19T12:26:01.908Z,21.7
2023-07-19T12:27:03.933Z,21.7
2023-07-19T12:28:05.918Z,21.7
2023-07-19T12:29:07.903Z,21.7
2023-07-19T12:30:09.927Z,21.7
2023-07-19T12:31:11.973Z,21.6
2023-07-19T12:32:13.902Z,21.5
2023-07-19T12:33:15.895Z,21.5
2023-07-19T12:34:17.894Z,21.4
2023-07-19T12:35:19.897Z,21.3
2023-07-19T12:36:22.111Z,21.1
2023-07-19T12:37:23.895Z,21
2023-07-19T12:38:25.912Z,21
2023-07-19T12:39:27.887Z,21
2023-07-19T12:40:29.916Z,21
2023-07-19T12:41:34.397Z,21
2023-07-19T12:42:36.685Z,21.1
2023-07-19T12:43:38.680Z,21.1
2023-07-19T12:44:40.677Z,21.2
2023-07-19T12:45:42.914Z,21.3
2023-07-19T12:46:44.711Z,21.4
2023-07-19T12:47:46.725Z,21.5
2023-07-19T12:48:48.669Z,21.7
2023-07-19T12:49:50.700Z,21.9
2023-07-19T12:50:52.666Z,22.1
2023-07-19T12:51:54.677Z,22.3
2023-07-19T12:52:56.666Z,22.4
2023-07-19T12:53:58.667Z,22.5
2023-07-19T12:55:00.693Z,22.5
2023-07-19T12:56:02.667Z,22.5
2023-07-19T12:57:04.659Z,22.6
2023-07-19T12:58:06.657Z,22.6
2023-07-19T12:59:10.511Z,22.6
2023-07-19T13:00:11.153Z,22.5
2023-07-19T13:01:13.256Z,22.4
2023-07-19T13:02:15.217Z,22.4
2023-07-19T13:03:17.231Z,22.5
2023-07-19T13:04:19.191Z,22.5
2023-07-19T13:05:21.148Z,22.6
2023-07-19T13:06:23.383Z,22.7
2023-07-19T13:07:25.150Z,22.8
2023-07-19T13:08:27.173Z,22.8
2023-07-19T13:09:29.172Z,22.7
2023-07-19T13:10:31.139Z,22.5
2023-07-19T13:11:33.140Z,22.5
2023-07-19T13:12:35.142Z,22.3
2023-07-19T13:13:37.168Z,22.2
2023-07-19T13:14:39.137Z,22.1
2023-07-19T13:15:41.135Z,22
2023-07-19T13:16:43.216Z,21.9
2023-07-19T13:17:45.205Z,21.9
2023-07-19T13:18:47.165Z,21.7
2023-07-19T13:19:49.138Z,21.7
2023-07-19T13:20:51.142Z,21.7
2023-07-19T13:21:53.131Z,21.5
2023-07-19T13:22:55.186Z,21.4
2023-07-19T13:23:57.128Z,21.4
2023-07-19T13:24:59.128Z,21.3
2023-07-19T13:26:01.168Z,21.1
2023-07-19T13:27:03.174Z,21
2023-07-19T13:28:05.152Z,20.9
2023-07-19T13:29:07.128Z,20.9
2023-07-19T13:30:09.546Z,20.8
2023-07-19T13:31:11.153Z,20.8
2023-07-19T13:32:13.757Z,20.8
2023-07-19T13:33:15.554Z,21
2023-07-19T13:34:17.525Z,21.1
2023-07-19T13:35:54.276Z,21.3
2023-07-19T13:36:56.928Z,21.4
2023-07-19T13:38:07.353Z,21.4
2023-07-19T13:39:08.504Z,21.5
2023-07-19T13:40:10.492Z,21.4
2023-07-19T13:41:12.522Z,21.4
2023-07-19T13:42:14.521Z,21.4
2023-07-19T13:43:16.488Z,21.4
2023-07-19T13:44:18.492Z,21.4
2023-07-19T13:45:20.496Z,21.4
2023-07-19T13:46:22.660Z,21.4
2023-07-19T13:47:24.676Z,21.4
2023-07-19T13:48:26.632Z,21.4
2023-07-19T13:49:28.637Z,21.3
2023-07-19T13:50:30.652Z,21.3
2023-07-19T13:51:32.660Z,21.2
2023-07-19T13:52:34.619Z,21.1
2023-07-19T13:53:36.620Z,21.1
2023-07-19T13:54:38.617Z,21.1
2023-07-19T13:55:40.650Z,21.1
2023-07-19T13:56:42.615Z,21.1
2023-07-19T13:57:44.615Z,21.1